Time;durP1;ratioP1;P1;durP2;ratioP2;P2;SDS_P1;SDS_P2;PMS_P1;PMS_P2;Temp;Humidity;BMP_temperature;BMP_pressure;BME280_temperature;BME280_humidity;BME280_pressure;Samples;Min_cycle;Max_cycle;Signal;HPM_P1;HPM_P2
2021/10/06 00:00:27;;;;;;;9.23;8.27;;;;;;;12.46;88.68;100809.97;4989744;28;20279;-76
2021/10/06 00:02:52;;;;;;;9.90;8.53;;;;;;;12.48;88.63;100802.25;4998774;28;20203;-77
2021/10/06 00:05:17;;;;;;;8.67;7.80;;;;;;;12.48;88.55;100807.41;5016202;28;20273;-77
2021/10/06 00:07:43;;;;;;;8.87;7.97;;;;;;;12.51;88.53;100807.44;5007040;28;20199;-76
2021/10/06 00:10:09;;;;;;;8.87;7.97;;;;;;;12.51;88.51;100810.00;5003835;28;20198;-77
2021/10/06 00:12:34;;;;;;;11.43;8.60;;;;;;;12.51;88.84;100821.16;4997155;28;20194;-77
2021/10/06 00:15:00;;;;;;;9.60;8.00;;;;;;;12.51;88.93;100818.59;4987973;28;20200;-77
2021/10/06 00:17:25;;;;;;;10.67;7.70;;;;;;;12.54;88.54;100820.34;5005003;28;20196;-77
2021/10/06 00:19:52;;;;;;;10.30;8.80;;;;;;;12.53;88.68;100823.75;5010531;28;20222;-77
2021/10/06 00:22:18;;;;;;;8.97;7.87;;;;;;;12.53;88.37;100831.47;4996164;28;20251;-77
2021/10/06 00:24:43;;;;;;;9.67;8.77;;;;;;;12.53;88.49;100829.72;5009916;28;20584;-76
2021/10/06 00:27:09;;;;;;;9.97;8.93;;;;;;;12.56;88.97;100834.03;5017387;28;20206;-78
2021/10/06 00:29:34;;;;;;;9.30;8.40;;;;;;;12.54;88.95;100833.16;5010956;28;20610;-79
2021/10/06 00:31:59;;;;;;;11.63;8.83;;;;;;;12.53;89.17;100829.72;5005070;28;20260;-79
2021/10/06 00:34:25;;;;;;;9.47;8.57;;;;;;;12.52;89.17;100838.28;5008869;28;20646;-77
2021/10/06 00:36:50;;;;;;;9.63;8.63;;;;;;;12.52;88.85;100837.41;5010125;28;20736;-77
2021/10/06 00:39:16;;;;;;;9.97;8.97;;;;;;;12.51;89.22;100833.13;5002377;28;20188;-78
2021/10/06 00:41:41;;;;;;;11.77;8.87;;;;;;;12.51;89.12;100839.13;5008095;28;20195;-78
2021/10/06 00:44:14;;;;;;;12.13;8.73;;;;;;;12.50;89.60;100837.38;5002197;28;20216;-77
2021/10/06 00:46:39;;;;;;;10.13;9.13;;;;;;;12.48;89.12;100848.50;4996734;28;20642;-78
2021/10/06 00:49:04;;;;;;;9.67;8.70;;;;;;;12.47;89.61;100839.06;4994066;28;20272;-78
2021/10/06 00:51:29;;;;;;;10.47;9.37;;;;;;;12.45;89.43;100848.47;5001331;28;20709;-77
2021/10/06 00:53:55;;;;;;;10.33;9.33;;;;;;;12.44;89.87;100855.31;4988845;28;20720;-76
2021/10/06 00:56:20;;;;;;;11.77;8.77;;;;;;;12.42;89.98;100854.44;5008039;28;20209;-77
2021/10/06 00:58:46;;;;;;;11.23;10.13;;;;;;;12.38;90.02;100846.66;5005878;28;20191;-78
2021/10/06 01:01:11;;;;;;;10.87;9.67;;;;;;;12.40;89.91;100850.13;5002118;28;20309;-77
2021/10/06 01:03:36;;;;;;;10.20;9.17;;;;;;;12.39;89.78;100854.41;5005610;28;20226;-77
2021/10/06 01:06:02;;;;;;;10.63;9.40;;;;;;;12.39;89.72;100856.13;4999027;28;20263;-78
2021/10/06 01:08:27;;;;;;;10.07;8.83;;;;;;;12.38;89.86;100868.09;5019050;28;20192;-77
2021/10/06 01:10:54;;;;;;;11.70;9.70;;;;;;;12.36;89.61;100862.03;5005616;28;20196;-77
2021/10/06 01:13:20;;;;;;;11.30;9.57;;;;;;;12.38;89.97;100868.09;5014272;28;20818;-79
2021/10/06 01:15:46;;;;;;;11.93;9.80;;;;;;;12.37;89.67;100868.94;5017706;28;20214;-78
2021/10/06 01:18:11;;;;;;;10.03;9.03;;;;;;;12.38;89.96;100874.91;5006570;28;20199;-79
2021/10/06 01:20:37;;;;;;;10.67;9.57;;;;;;;12.37;89.71;100875.75;4985586;28;20203;-78
2021/10/06 01:23:02;;;;;;;11.33;10.10;;;;;;;12.36;89.21;100881.75;4998600;28;20210;-77
2021/10/06 01:25:27;;;;;;;12.47;10.13;;;;;;;12.35;89.39;100883.44;5007005;28;20266;-77
2021/10/06 01:27:53;;;;;;;11.93;9.77;;;;;;;12.33;89.32;100895.41;5004238;28;20188;-78
2021/10/06 01:30:18;;;;;;;10.60;9.60;;;;;;;12.32;89.50;100890.25;5005546;28;20206;-77
2021/10/06 01:32:45;;;;;;;12.47;10.20;;;;;;;12.28;89.52;100893.63;4988498;28;20200;-77
2021/10/06 01:35:13;;;;;;;10.63;9.43;;;;;;;12.29;89.64;100895.34;4995999;28;20265;-78
2021/10/06 01:37:39;;;;;;;10.87;9.57;;;;;;;12.26;89.20;100898.72;5008536;28;20191;-77
2021/10/06 01:40:08;;;;;;;12.27;10.20;;;;;;;12.23;89.16;100896.13;5002554;28;20191;-79
2021/10/06 01:42:34;;;;;;;10.67;9.57;;;;;;;12.22;89.20;100896.13;5006202;28;20191;-78
2021/10/06 01:44:59;;;;;;;12.37;9.77;;;;;;;12.19;89.27;100902.06;4996726;28;20204;-78
2021/10/06 01:47:25;;;;;;;13.50;10.43;;;;;;;12.16;89.07;100906.31;4998863;28;20614;-77
2021/10/06 01:49:51;;;;;;;12.57;10.70;;;;;;;12.12;89.58;100907.94;5000613;28;20201;-78
2021/10/06 01:52:19;;;;;;;12.40;10.00;;;;;;;12.11;88.90;100906.22;4994453;28;20244;-78
2021/10/06 01:54:45;;;;;;;12.17;10.50;;;;;;;12.06;88.83;100920.69;5007463;28;20230;-78
2021/10/06 01:57:10;;;;;;;13.43;10.20;;;;;;;12.06;89.08;100919.81;5005970;28;20983;-77
2021/10/06 01:59:36;;;;;;;15.53;10.93;;;;;;;12.01;89.05;100919.78;5012187;28;20290;-78
2021/10/06 02:02:02;;;;;;;14.13;10.90;;;;;;;12.00;88.87;100920.63;5004887;28;20219;-78
2021/10/06 02:04:27;;;;;;;13.27;11.80;;;;;;;11.99;89.21;100924.00;4994631;28;20242;-78
2021/10/06 02:06:52;;;;;;;15.53;11.13;;;;;;;12.00;88.44;100924.88;4991846;28;20283;-76
2021/10/06 02:09:18;;;;;;;13.27;11.13;;;;;;;12.01;88.21;100931.72;5037513;28;20191;-77
2021/10/06 02:11:43;;;;;;;14.03;11.07;;;;;;;11.99;88.23;100928.28;5001384;28;20218;-76
2021/10/06 02:14:08;;;;;;;14.13;10.90;;;;;;;11.93;88.82;100918.78;5007868;28;20207;-77
2021/10/06 02:16:34;;;;;;;12.90;10.50;;;;;;;11.91;88.32;100914.47;5012582;28;20294;-77
2021/10/06 02:18:59;;;;;;;13.50;11.17;;;;;;;11.89;88.05;100923.88;5004488;28;20176;-76
2021/10/06 02:21:24;;;;;;;12.43;11.13;;;;;;;11.86;87.71;100922.13;5004575;28;20378;-79
2021/10/06 02:23:50;;;;;;;12.43;11.10;;;;;;;11.83;88.48;100924.63;5011152;28;20641;-76
2021/10/06 02:26:15;;;;;;;15.17;10.73;;;;;;;11.83;87.36;100931.44;5009707;28;20732;-78
2021/10/06 02:28:41;;;;;;;12.53;10.37;;;;;;;11.82;87.68;100930.59;5009596;28;20201;-78
2021/10/06 02:31:06;;;;;;;13.30;11.43;;;;;;;11.83;87.16;100939.16;5013597;28;20221;-78
2021/10/06 02:33:31;;;;;;;13.00;10.07;;;;;;;11.81;87.22;100938.28;5040619;28;20231;-78
2021/10/06 02:35:57;;;;;;;14.43;11.03;;;;;;;11.82;87.44;100935.75;5013854;28;20198;-76
2021/10/06 02:38:22;;;;;;;12.60;10.10;;;;;;;11.80;87.45;100931.41;5036712;28;20222;-77
2021/10/06 02:40:47;;;;;;;12.77;10.97;;;;;;;11.75;87.54;100933.91;5013190;28;20653;-77
2021/10/06 02:43:13;;;;;;;11.53;10.20;;;;;;;11.73;87.94;100938.16;4990188;28;20207;-78
2021/10/06 02:45:38;;;;;;;13.37;10.80;;;;;;;11.67;87.31;100940.63;5007034;28;20191;-78
2021/10/06 02:48:04;;;;;;;14.30;10.50;;;;;;;11.66;88.01;100946.56;5005389;28;20188;-77
2021/10/06 02:50:29;;;;;;;11.67;10.33;;;;;;;11.65;87.53;100959.38;5014357;28;20188;-77
2021/10/06 02:52:54;;;;;;;15.13;11.17;;;;;;;11.65;88.13;100959.38;4997894;28;20262;-77
2021/10/06 02:55:20;;;;;;;11.70;10.50;;;;;;;11.66;88.04;100961.97;4999434;28;20226;-77
2021/10/06 02:57:46;;;;;;;12.63;10.17;;;;;;;11.67;87.56;100961.16;5000811;28;20203;-79
2021/10/06 03:00:11;;;;;;;13.43;10.10;;;;;;;11.69;87.69;100966.28;5009223;28;20564;-78
2021/10/06 03:02:39;;;;;;;15.70;10.03;;;;;;;11.71;87.76;100969.75;4987365;28;20188;-78
2021/10/06 03:05:05;;;;;;;11.77;9.40;;;;;;;11.71;87.61;100974.88;5011823;28;20199;-78
2021/10/06 03:07:31;;;;;;;12.57;10.43;;;;;;;11.71;86.98;100974.88;4985089;28;20571;-78
2021/10/06 03:09:56;;;;;;;13.80;9.30;;;;;;;11.74;87.72;100987.75;4989895;28;20178;-77
2021/10/06 03:12:21;;;;;;;10.70;9.60;;;;;;;11.74;87.70;100990.31;5014886;28;20206;-77
2021/10/06 03:14:47;;;;;;;11.50;9.90;;;;;;;11.72;87.69;100990.31;5013747;28;20214;-77
2021/10/06 03:17:12;;;;;;;11.80;9.83;;;;;;;11.72;88.01;100985.19;4983050;28;20267;-77
2021/10/06 03:19:37;;;;;;;11.70;9.27;;;;;;;11.75;87.72;100995.47;5006380;28;20192;-77
2021/10/06 03:22:03;;;;;;;12.97;10.43;;;;;;;11.77;87.29;100998.06;5000798;28;20639;-78
2021/10/06 03:24:28;;;;;;;12.60;9.87;;;;;;;11.76;87.61;100992.06;4997519;28;20299;-77
2021/10/06 03:26:54;;;;;;;13.30;9.37;;;;;;;11.77;87.84;100996.38;4986609;28;20193;-78
2021/10/06 03:29:19;;;;;;;13.43;9.30;;;;;;;11.80;87.99;101001.53;5007293;28;20195;-78
2021/10/06 03:31:45;;;;;;;13.30;10.33;;;;;;;11.81;87.52;101002.41;5023415;28;20188;-77
2021/10/06 03:34:10;;;;;;;12.33;10.23;;;;;;;11.79;87.91;101007.50;5003351;28;20211;-78
2021/10/06 03:36:35;;;;;;;14.70;10.13;;;;;;;11.84;87.77;101005.03;4998938;28;20708;-78
2021/10/06 03:39:01;;;;;;;13.03;9.83;;;;;;;11.82;87.80;101015.28;4998395;28;20251;-77
2021/10/06 03:41:26;;;;;;;12.43;9.83;;;;;;;11.83;88.10;101009.28;5008249;28;20780;-77
2021/10/06 03:43:52;;;;;;;11.07;9.87;;;;;;;11.82;87.80;101020.41;4995351;28;20205;-77
2021/10/06 03:46:17;;;;;;;11.70;9.87;;;;;;;11.80;88.19;101014.38;5012794;28;20258;-76
2021/10/06 03:48:45;;;;;;;14.23;9.33;;;;;;;11.83;88.48;101026.38;5002662;28;20183;-77
2021/10/06 03:51:11;;;;;;;13.97;9.73;;;;;;;11.82;88.03;101027.22;4990027;28;20180;-77
2021/10/06 03:53:36;;;;;;;13.23;10.57;;;;;;;11.80;88.38;101034.03;5008327;28;20216;-78
2021/10/06 03:56:02;;;;;;;11.13;9.83;;;;;;;11.81;88.46;101030.63;5009328;28;20221;-78
2021/10/06 03:58:27;;;;;;;13.10;9.97;;;;;;;11.82;88.09;101048.63;4981024;28;20188;-78
2021/10/06 04:00:52;;;;;;;12.90;9.97;;;;;;;11.84;87.93;101040.97;5007679;28;20187;-78
2021/10/06 04:03:18;;;;;;;11.17;9.80;;;;;;;11.85;87.98;101045.25;5003446;28;20208;-78
2021/10/06 04:05:43;;;;;;;12.30;9.57;;;;;;;11.83;87.60;101046.91;5005468;28;20217;-76
2021/10/06 04:08:09;;;;;;;11.27;10.10;;;;;;;11.81;87.90;101051.16;4994463;28;20195;-78
2021/10/06 04:10:35;;;;;;;11.90;9.60;;;;;;;11.77;87.79;101041.69;5006545;28;20195;-77
2021/10/06 04:13:00;;;;;;;11.00;9.70;;;;;;;11.71;87.98;101055.25;5003755;28;20207;-77
2021/10/06 04:15:26;;;;;;;12.87;10.00;;;;;;;11.67;88.26;101053.50;5012484;28;20207;-78
2021/10/06 04:17:51;;;;;;;10.57;9.33;;;;;;;11.63;87.59;101054.28;5001089;28;20203;-77
2021/10/06 04:20:16;;;;;;;12.73;9.13;;;;;;;11.63;86.58;101054.28;5009467;28;20675;-77
2021/10/06 04:22:42;;;;;;;16.73;9.80;;;;;;;11.60;87.84;101063.59;4996477;28;20665;-76
2021/10/06 04:25:08;;;;;;;12.97;9.83;;;;;;;11.52;87.12;101062.56;5007822;28;20688;-78
2021/10/06 04:27:34;;;;;;;12.77;9.97;;;;;;;11.48;87.56;101056.50;5010313;28;20187;-78
2021/10/06 04:29:59;;;;;;;11.20;10.10;;;;;;;11.48;87.39;101059.06;5010221;28;20198;-76
2021/10/06 04:32:25;;;;;;;13.13;10.33;;;;;;;11.41;87.08;101066.59;5001316;28;20197;-77
2021/10/06 04:34:50;;;;;;;14.23;9.40;;;;;;;11.35;87.04;101067.38;5010390;28;20276;-77
2021/10/06 04:37:16;;;;;;;11.57;8.80;;;;;;;11.30;86.94;101066.38;5000293;28;20216;-77
2021/10/06 04:39:41;;;;;;;10.17;9.17;;;;;;;11.28;87.19;101073.19;5011138;28;20199;-77
2021/10/06 04:42:06;;;;;;;12.67;10.20;;;;;;;11.21;86.89;101076.50;5013063;28;20247;-77
2021/10/06 04:44:32;;;;;;;13.43;10.60;;;;;;;11.14;87.13;101084.88;5008969;28;20258;-78
2021/10/06 04:46:57;;;;;;;12.93;10.40;;;;;;;11.18;87.20;101080.66;5010244;28;20187;-77
2021/10/06 04:49:23;;;;;;;13.43;11.13;;;;;;;11.14;87.56;101084.00;5009585;28;20195;-78
2021/10/06 04:51:48;;;;;;;11.73;10.53;;;;;;;11.11;87.49;101095.03;4989135;28;20200;-77
2021/10/06 04:54:13;;;;;;;15.83;10.60;;;;;;;11.11;87.06;101097.59;5007194;28;20211;-78
2021/10/06 04:56:39;;;;;;;11.60;10.40;;;;;;;11.06;87.11;101104.34;5004767;28;20239;-77
2021/10/06 04:59:04;;;;;;;13.60;10.97;;;;;;;11.02;87.82;101101.69;5005416;28;20198;-77
2021/10/06 05:01:29;;;;;;;17.10;11.00;;;;;;;11.01;87.19;101103.38;5038828;28;20193;-77
2021/10/06 05:03:55;;;;;;;14.80;10.73;;;;;;;10.99;87.76;101105.06;5007316;28;20199;-77
2021/10/06 05:06:20;;;;;;;12.97;10.33;;;;;;;10.92;87.30;101103.16;5040333;28;20688;-78
2021/10/06 05:08:46;;;;;;;12.03;9.47;;;;;;;10.89;87.35;101113.38;5002082;28;20214;-77
2021/10/06 05:11:12;;;;;;;13.27;9.40;;;;;;;10.80;86.83;101118.28;4993042;28;20191;-77
2021/10/06 05:13:37;;;;;;;15.57;9.87;;;;;;;10.80;87.26;101122.53;5016803;28;20211;-77
2021/10/06 05:16:03;;;;;;;11.20;9.53;;;;;;;10.80;87.53;101123.41;5013250;28;20205;-79
2021/10/06 05:18:28;;;;;;;13.60;10.30;;;;;;;10.81;87.54;101131.94;4985160;28;20219;-77
2021/10/06 05:20:54;;;;;;;15.47;10.53;;;;;;;10.73;87.20;101129.22;5007198;28;20218;-77
2021/10/06 05:23:19;;;;;;;14.43;9.60;;;;;;;10.76;87.44;101131.84;4998614;28;20211;-77
2021/10/06 05:25:44;;;;;;;10.73;8.93;;;;;;;10.69;87.32;101134.25;5005049;28;20191;-78
2021/10/06 05:28:09;;;;;;;10.73;9.33;;;;;;;10.68;87.37;101135.94;5009334;28;20267;-78
2021/10/06 05:30:35;;;;;;;12.30;9.70;;;;;;;10.65;87.09;101140.97;5007878;28;20210;-78
2021/10/06 05:33:00;;;;;;;14.13;10.40;;;;;;;10.63;87.71;101145.19;4995401;28;20223;-77
2021/10/06 05:35:25;;;;;;;15.50;10.23;;;;;;;10.63;87.62;101142.63;4995844;28;20231;-78
2021/10/06 05:37:51;;;;;;;11.60;9.57;;;;;;;10.64;87.29;101146.06;5007753;28;20191;-78
2021/10/06 05:40:17;;;;;;;14.23;10.17;;;;;;;10.62;87.17;101147.72;5016657;28;20576;-77
2021/10/06 05:42:42;;;;;;;13.73;9.77;;;;;;;10.62;87.43;101156.28;4998702;28;20189;-78
2021/10/06 05:45:08;;;;;;;14.40;10.13;;;;;;;10.62;87.22;101161.41;4997626;28;20247;-77
2021/10/06 05:47:34;;;;;;;14.73;9.77;;;;;;;10.60;87.70;101160.47;4995453;28;20222;-78
2021/10/06 05:50:00;;;;;;;12.93;8.87;;;;;;;10.60;87.52;101159.63;4978367;28;20204;-77
2021/10/06 05:52:25;;;;;;;15.83;9.93;;;;;;;10.59;87.53;101166.44;4977463;28;20199;-77
2021/10/06 05:54:51;;;;;;;13.43;10.33;;;;;;;10.61;87.53;101169.91;4976463;28;20348;-78
2021/10/06 05:57:16;;;;;;;14.13;9.97;;;;;;;10.62;87.62;101163.97;5009140;28;20196;-78
2021/10/06 05:59:41;;;;;;;13.43;9.70;;;;;;;10.60;87.54;101175.84;4978078;28;20196;-78
2021/10/06 06:02:07;;;;;;;10.77;9.40;;;;;;;10.61;87.45;101179.28;4977522;28;20185;-77
2021/10/06 06:04:33;;;;;;;10.77;9.43;;;;;;;10.62;87.44;101181.00;4978156;28;20212;-77
2021/10/06 06:06:58;;;;;;;10.50;8.90;;;;;;;10.65;86.98;101186.22;4976054;28;20189;-77
2021/10/06 06:09:23;;;;;;;14.03;9.23;;;;;;;10.67;87.33;101181.97;4976260;28;20763;-77
2021/10/06 06:11:50;;;;;;;12.13;9.40;;;;;;;10.68;86.99;101187.16;4992099;28;20677;-76
2021/10/06 06:14:16;;;;;;;13.30;9.50;;;;;;;10.71;87.27;101187.22;4991401;28;20245;-78
2021/10/06 06:16:41;;;;;;;11.43;9.20;;;;;;;10.72;86.92;101194.06;4975464;28;20308;-78
2021/10/06 06:19:07;;;;;;;11.93;9.20;;;;;;;10.76;86.89;101201.00;4976833;28;20232;-76
2021/10/06 06:21:32;;;;;;;11.67;9.57;;;;;;;10.80;86.95;101201.94;4999984;28;20282;-77
2021/10/06 06:23:58;;;;;;;13.30;9.40;;;;;;;10.86;87.02;101205.53;5004831;28;20691;-76
2021/10/06 06:26:23;;;;;;;9.97;8.33;;;;;;;10.94;86.38;101211.69;5014420;28;20187;-78
2021/10/06 06:28:49;;;;;;;11.47;8.53;;;;;;;10.98;86.62;101210.94;5015515;28;20183;-78
2021/10/06 06:31:17;;;;;;;11.23;8.90;;;;;;;11.03;86.18;101214.47;5015072;28;20552;-78
2021/10/06 06:33:43;;;;;;;11.00;8.80;;;;;;;11.12;85.60;101227.50;5016884;28;20676;-78
2021/10/06 06:36:09;;;;;;;10.57;8.73;;;;;;;11.15;85.49;101226.72;5015927;28;20273;-78
2021/10/06 06:38:35;;;;;;;9.83;8.27;;;;;;;11.19;85.57;101228.47;4994442;28;20208;-78
2021/10/06 06:41:00;;;;;;;8.97;8.07;;;;;;;11.18;85.46;101235.31;4974454;28;20242;-78
2021/10/06 06:43:25;;;;;;;11.20;8.33;;;;;;;11.16;86.11;101241.25;4974612;28;20220;-78
2021/10/06 06:45:51;;;;;;;13.57;8.30;;;;;;;11.19;85.80;101249.00;4990982;28;20192;-78
2021/10/06 06:48:16;;;;;;;11.97;7.90;;;;;;;11.27;85.59;101245.78;4990728;28;20176;-78
2021/10/06 06:50:42;;;;;;;7.80;7.03;;;;;;;11.54;84.59;101241.28;4975577;28;20220;-77
2021/10/06 06:53:07;;;;;;;9.13;6.63;;;;;;;11.75;83.40;101235.78;4990817;28;20212;-78
2021/10/06 06:55:32;;;;;;;20.67;6.80;;;;;;;11.88;82.75;101237.72;4990632;28;20212;-78
2021/10/06 06:57:58;;;;;;;6.77;5.53;;;;;;;12.09;82.19;101240.75;4988990;28;20219;-79
2021/10/06 07:00:23;;;;;;;8.20;5.80;;;;;;;12.14;82.05;101240.00;5007045;28;20196;-79
2021/10/06 07:02:48;;;;;;;11.33;5.67;;;;;;;12.21;81.71;101241.00;4990008;28;20191;-76
2021/10/06 07:05:14;;;;;;;7.13;5.47;;;;;;;12.34;81.06;101248.06;5006118;28;20205;-77
2021/10/06 07:07:39;;;;;;;8.27;5.30;;;;;;;12.50;80.07;101250.09;4974917;28;20192;-76
2021/10/06 07:10:05;;;;;;;9.73;5.70;;;;;;;12.64;80.19;101246.06;4975109;28;20880;-78
2021/10/06 07:12:30;;;;;;;8.20;5.57;;;;;;;12.81;79.47;101249.78;4975601;28;20666;-78
2021/10/06 07:14:56;;;;;;;6.67;4.93;;;;;;;12.91;78.56;101252.50;5024626;28;20220;-78
2021/10/06 07:17:22;;;;;;;10.20;5.40;;;;;;;13.01;78.50;101261.28;4993720;28;20211;-78
2021/10/06 07:19:47;;;;;;;6.10;4.60;;;;;;;12.94;77.51;101265.44;4993555;28;20192;-78
2021/10/06 07:22:15;;;;;;;6.40;4.57;;;;;;;13.13;77.60;101265.75;5003117;28;20195;-78
2021/10/06 07:24:40;;;;;;;6.23;4.63;;;;;;;13.23;77.02;101276.22;4974577;28;20228;-78
2021/10/06 07:27:05;;;;;;;7.43;4.40;;;;;;;13.45;76.95;101279.97;4975300;28;20243;-78
2021/10/06 07:29:31;;;;;;;9.13;4.60;;;;;;;13.62;76.35;101276.78;4976325;28;20203;-77
2021/10/06 07:31:57;;;;;;;6.63;3.73;;;;;;;13.68;75.69;101276.88;4993697;28;20253;-78
2021/10/06 07:34:23;;;;;;;5.43;3.50;;;;;;;13.68;75.25;101286.31;4995009;28;20204;-78
2021/10/06 07:36:49;;;;;;;8.90;4.00;;;;;;;13.67;75.50;101275.16;4995046;28;20734;-78
2021/10/06 07:39:14;;;;;;;5.50;3.37;;;;;;;13.78;75.62;101278.75;4995934;28;20191;-79
2021/10/06 07:41:39;;;;;;;7.97;4.03;;;;;;;13.78;74.51;101291.63;4994053;28;20653;-79
2021/10/06 07:44:05;;;;;;;7.03;3.80;;;;;;;14.02;74.29;101285.91;4992969;28;20220;-78
2021/10/06 07:46:30;;;;;;;5.13;3.20;;;;;;;13.98;74.00;101297.88;4993589;28;20191;-77
2021/10/06 07:48:56;;;;;;;5.27;2.97;;;;;;;14.31;73.06;101288.03;4973374;28;20197;-77
2021/10/06 07:51:21;;;;;;;4.37;3.43;;;;;;;14.43;73.00;101295.91;4988237;28;20239;-77
2021/10/06 07:53:48;;;;;;;8.77;2.97;;;;;;;14.60;72.10;101298.66;4971743;28;20227;-77
2021/10/06 07:56:14;;;;;;;8.37;3.53;;;;;;;14.43;72.64;101292.44;4971438;28;20689;-76
2021/10/06 07:58:39;;;;;;;6.07;3.00;;;;;;;14.60;71.08;101296.06;4970881;28;20550;-77
2021/10/06 08:01:05;;;;;;;6.03;3.00;;;;;;;14.45;70.63;101299.34;4976895;28;20238;-76
2021/10/06 08:03:30;;;;;;;5.67;2.93;;;;;;;14.44;71.10;101304.47;4987169;28;20258;-77
2021/10/06 08:05:55;;;;;;;8.27;3.17;;;;;;;14.37;70.76;101313.84;5001204;28;20278;-77
2021/10/06 08:08:26;;;;;;;5.63;2.80;;;;;;;14.45;70.28;101317.38;5005046;28;20192;-77
2021/10/06 08:10:55;;;;;;;4.97;2.77;;;;;;;14.71;69.58;101315.09;5008683;28;20208;-76
2021/10/06 08:13:22;;;;;;;6.40;2.70;;;;;;;15.03;69.29;101322.28;4974271;28;20247;-77
2021/10/06 08:15:48;;;;;;;7.27;3.07;;;;;;;14.85;68.51;101316.97;4981443;28;20224;-77
2021/10/06 08:18:16;;;;;;;5.47;2.50;;;;;;;15.09;69.40;101321.47;4959836;28;20536;-76
2021/10/06 08:20:44;;;;;;;4.87;2.40;;;;;;;15.07;67.69;101324.06;4976761;28;20188;-78
2021/10/06 08:23:10;;;;;;;7.07;2.83;;;;;;;15.04;67.26;101331.75;4958956;28;20229;-77
2021/10/06 08:25:35;;;;;;;5.53;3.07;;;;;;;15.33;67.40;101325.13;4958563;28;20268;-76
2021/10/06 08:28:01;;;;;;;5.57;2.40;;;;;;;15.53;66.52;101327.88;4957767;29;20193;-78
2021/10/06 08:30:27;;;;;;;8.40;2.80;;;;;;;15.51;66.03;101333.03;4975913;28;20189;-76
2021/10/06 08:32:53;;;;;;;5.90;2.80;;;;;;;15.63;65.95;101342.56;4992299;28;20745;-77
2021/10/06 08:35:18;;;;;;;4.40;2.73;;;;;;;15.38;66.17;101343.25;4977689;28;20316;-77
2021/10/06 08:37:45;;;;;;;7.43;3.13;;;;;;;15.77;66.61;101343.53;4976418;28;20219;-78
2021/10/06 08:40:10;;;;;;;4.30;2.47;;;;;;;15.58;65.59;101346.84;4973595;28;20185;-77
2021/10/06 08:42:36;;;;;;;4.57;2.77;;;;;;;15.92;63.77;101353.94;4957787;29;20249;-77
2021/10/06 08:45:08;;;;;;;6.20;2.40;;;;;;;15.67;63.86;101368.44;4969216;28;20227;-77
2021/10/06 08:47:38;;;;;;;5.40;2.47;;;;;;;15.93;63.39;101366.88;4995630;28;20227;-77
2021/10/06 08:50:05;;;;;;;4.73;2.20;;;;;;;16.11;64.27;101371.31;4997549;28;20191;-78
2021/10/06 08:52:30;;;;;;;5.33;2.27;;;;;;;16.14;64.55;101359.25;4990682;28;20965;-77
2021/10/06 08:54:56;;;;;;;4.23;2.30;;;;;;;16.74;63.46;101369.88;4993834;28;20303;-78
2021/10/06 08:57:21;;;;;;;4.30;2.30;;;;;;;16.36;61.96;101376.59;4993297;28;20188;-77
2021/10/06 08:59:46;;;;;;;3.67;2.17;;;;;;;16.32;62.27;101376.56;4980576;28;20268;-78
2021/10/06 09:02:13;;;;;;;5.63;2.70;;;;;;;17.31;60.17;101380.31;4978514;28;20271;-78
2021/10/06 09:04:39;;;;;;;7.70;2.70;;;;;;;19.36;53.95;101365.84;4998696;28;20211;-76
2021/10/06 09:07:06;;;;;;;2.67;2.03;;;;;;;20.74;48.89;101373.91;5000525;28;20192;-77
2021/10/06 09:09:33;;;;;;;6.47;2.43;;;;;;;22.93;45.20;101372.56;5015432;28;20199;-78
2021/10/06 09:11:59;;;;;;;5.33;1.90;;;;;;;20.54;48.82;101381.13;5010973;28;20192;-78
2021/10/06 09:14:25;;;;;;;4.90;2.20;;;;;;;18.40;54.37;101397.50;4977717;28;20267;-78
2021/10/06 09:17:23;;;;;;;4.03;1.87;;;;;;;21.20;46.97;101385.41;4993352;28;20763;-77
2021/10/06 09:19:53;;;;;;;3.00;1.50;;;;;;;20.43;49.77;101388.16;4998172;28;20208;-77
2021/10/06 09:22:21;;;;;;;5.50;2.33;;;;;;;25.59;39.44;101368.56;4978270;28;20189;-78
2021/10/06 09:24:57;;;;;;;4.63;2.08;;;;;;;25.42;38.22;101370.03;4978833;28;20232;-78
2021/10/06 09:27:30;;;;;;;2.75;1.60;;;;;;;23.29;43.01;101383.97;4997759;28;20195;-79
2021/10/06 09:30:01;;;;;;;4.63;1.70;;;;;;;24.14;40.32;101373.91;4971926;28;20200;-78
2021/10/06 09:32:29;;;;;;;4.65;1.90;;;;;;;24.58;39.06;101380.50;5009682;28;20243;-78
2021/10/06 09:35:06;;;;;;;3.15;1.80;;;;;;;26.98;35.24;101374.84;4977899;28;20196;-79
2021/10/06 09:37:32;;;;;;;4.10;1.85;;;;;;;27.93;33.51;101375.25;4980541;28;20185;-78
2021/10/06 09:39:58;;;;;;;4.03;1.63;;;;;;;23.01;41.64;101394.16;4979585;28;20684;-77
2021/10/06 09:42:23;;;;;;;4.72;1.85;;;;;;;20.51;49.31;101412.38;4992882;28;20193;-77
2021/10/06 09:44:58;;;;;;;3.53;2.25;;;;;;;27.02;34.82;101384.28;4978431;28;20216;-78
2021/10/06 09:47:24;;;;;;;5.55;2.08;;;;;;;27.01;34.81;101379.97;5003244;28;20262;-78
2021/10/06 09:49:57;;;;;;;3.17;1.90;;;;;;;27.27;34.48;101374.56;4979654;28;20192;-78
2021/10/06 09:52:32;;;;;;;4.40;2.00;;;;;;;27.70;32.92;101380.63;5011433;28;20219;-78
2021/10/06 09:54:59;;;;;;;4.25;2.00;;;;;;;27.41;33.33;101380.13;4992646;28;20215;-79
2021/10/06 09:57:32;;;;;;;2.83;1.85;;;;;;;29.58;31.93;101378.00;4997338;28;20191;-78
2021/10/06 10:00:02;;;;;;;3.80;1.70;;;;;;;22.40;42.17;101406.78;4968732;28;20251;-78
2021/10/06 10:02:37;;;;;;;3.55;1.85;;;;;;;25.66;37.47;101398.06;4997516;28;20184;-77
2021/10/06 10:05:04;;;;;;;4.75;1.83;;;;;;;21.22;45.01;101413.16;4983177;28;20211;-78
2021/10/06 10:07:30;;;;;;;2.25;1.50;;;;;;;22.98;41.43;101409.06;5009133;28;20184;-78
2021/10/06 10:09:56;;;;;;;3.10;1.93;;;;;;;22.42;44.40;101408.44;5018924;28;20716;-77
2021/10/06 10:12:24;;;;;;;2.67;1.63;;;;;;;21.02;47.23;101411.72;5019066;28;20194;-77
2021/10/06 10:14:50;;;;;;;2.63;1.50;;;;;;;21.07;45.61;101421.22;5017094;28;20211;-78
2021/10/06 10:17:17;;;;;;;6.07;1.77;;;;;;;19.00;50.03;101430.09;5015974;28;20278;-78
2021/10/06 10:19:44;;;;;;;2.80;1.63;;;;;;;17.87;52.70;101433.00;5015296;28;20195;-77
2021/10/06 10:22:12;;;;;;;3.30;1.70;;;;;;;18.65;51.84;101438.03;4992183;28;20196;-78
2021/10/06 10:24:49;;;;;;;4.23;1.50;;;;;;;20.93;46.90;101425.75;4975847;28;20578;-78
2021/10/06 10:27:18;;;;;;;5.53;1.70;;;;;;;18.20;52.88;101445.91;4976025;28;20192;-78
2021/10/06 10:29:51;;;;;;;3.03;1.50;;;;;;;17.23;56.34;101449.34;4976864;28;20189;-77
2021/10/06 10:32:22;;;;;;;3.70;1.73;;;;;;;16.72;59.06;101459.53;4993006;28;20200;-77
2021/10/06 10:35:08;;;;;;;3.90;1.80;;;;;;;16.36;58.92;101467.09;5009923;28;20212;-77
2021/10/06 10:37:45;;;;;;;4.97;2.00;;;;;;;16.28;59.78;101471.34;4976822;28;20263;-77
2021/10/06 10:40:29;;;;;;;5.13;2.00;;;;;;;16.25;60.09;101470.47;5009852;28;20207;-77
2021/10/06 10:43:08;;;;;;;2.90;1.73;;;;;;;16.20;60.39;101477.28;4991921;28;20654;-77
2021/10/06 10:45:55;;;;;;;3.77;2.03;;;;;;;16.39;60.55;101479.16;4977465;28;20220;-77
2021/10/06 10:48:24;;;;;;;3.63;2.17;;;;;;;16.13;61.20;101486.75;4978614;28;20255;-77
2021/10/06 10:50:49;;;;;;;6.53;1.97;;;;;;;16.03;61.55;101486.66;4977740;28;20565;-76
2021/10/06 10:53:41;;;;;;;4.67;2.10;;;;;;;15.92;62.34;101485.69;4976995;28;20296;-77
2021/10/06 10:56:06;;;;;;;5.20;2.03;;;;;;;15.78;62.66;101492.47;4977539;28;20228;-77
2021/10/06 10:58:34;;;;;;;6.07;2.40;;;;;;;15.83;62.96;101490.78;4960339;28;20283;-76
2021/10/06 11:01:02;;;;;;;4.83;1.87;;;;;;;15.66;62.68;101497.53;4964908;28;20252;-77
2021/10/06 11:03:28;;;;;;;5.13;1.90;;;;;;;15.68;62.62;101495.81;4977182;28;20615;-77
2021/10/06 11:05:54;;;;;;;2.77;1.70;;;;;;;15.86;62.96;101507.19;4991446;28;20175;-78
2021/10/06 11:08:35;;;;;;;3.67;1.60;;;;;;;15.67;64.05;101504.44;5007430;28;20222;-78
2021/10/06 11:11:10;;;;;;;3.33;1.87;;;;;;;15.62;63.86;101503.53;5010363;28;20543;-78
2021/10/06 11:13:37;;;;;;;5.17;1.57;;;;;;;15.52;63.75;101512.03;4991935;28;20215;-77
2021/10/06 11:16:03;;;;;;;2.70;1.50;;;;;;;15.43;63.12;101509.34;4975760;28;20213;-78